.
WxDataArchive / Data Records for 2011-09-13
2011-09-12 September 2011 2011-09-14

Data Records for Tuesday, 13 September 2011

Time	Temp	Chill	HIndex	Humid	Dewpt	 Wind 	HiWind	WindDir	Rain 	Barom 
-----	----	-----	------	-----	-----	------	------	-------	-----	----- 
00:00	68.6	68.6	68.6	71	58.8	0	2	270	0.00	29.882 
00:05	68.6	68.6	68.6	71	58.8	0	3	248	0.00	29.882 
00:10	68.8	68.8	68.8	70	58.6	0	3	248	0.00	29.882 
00:15	68.8	68.8	68.8	70	58.6	0	3	248	0.00	29.882 
00:20	69.1	69.1	69.1	69	58.5	0	3	248	0.00	29.882 
00:25	69.3	69.3	69.3	69	58.7	0	2	248	0.00	29.882 
00:30	69.4	69.4	69.4	68	58.4	0	2	248	0.00	29.881 
00:35	69.6	69.6	69.6	67	58.1	0	4	248	0.00	29.881 
00:40	69.6	69.6	69.6	67	58.1	0	2	248	0.00	29.881 
00:45	69.6	69.6	69.6	67	58.1	0	2	270	0.00	29.878 
00:50	69.6	69.6	69.6	67	58.1	1	3	270	0.00	29.878 
00:55	69.6	69.6	69.6	66	57.7	0	3	292	0.00	29.878 
01:00	69.6	69.6	69.6	66	57.7	0	2	292	0.00	29.877 
01:05	69.6	69.6	69.6	66	57.7	1	3	270	0.00	29.877 
01:10	69.6	69.6	69.6	66	57.7	0	3	270	0.00	29.877 
01:15	69.4	69.4	69.4	67	58.0	0	1	270	0.00	29.876 
01:20	69.4	69.4	69.4	66	57.5	1	5	270	0.00	29.876 
01:25	69.4	69.4	69.4	67	58.0	0	3	225	0.00	29.876 
01:30	69.4	69.4	69.4	67	58.0	0	3	225	0.00	29.879 
01:35	69.3	69.3	69.3	67	57.9	0	2	225	0.00	29.879 
01:40	69.3	69.3	69.3	67	57.9	0	3	225	0.00	29.879 
01:45	69.1	69.1	69.1	67	57.7	0	3	225	0.00	29.879 
01:50	69.1	69.1	69.1	68	58.1	0	2	270	0.00	29.879 
01:55	68.9	68.9	68.9	68	57.9	0	2	270	0.00	29.879 
02:00	68.8	68.8	68.8	68	57.8	0	2	248	0.00	29.878 
02:05	68.8	68.8	68.8	68	57.8	0	1	248	0.00	29.878 
02:10	68.6	68.6	68.6	69	58.0	0	3	248	0.00	29.878 
02:15	68.4	68.4	68.4	69	57.8	0	1	292	0.00	29.878 
02:20	68.4	68.4	68.4	69	57.8	0	2	292	0.00	29.878 
02:25	68.3	68.3	68.3	69	57.7	0	3	248	0.00	29.878 
02:30	68.3	68.3	68.3	69	57.7	0	2	292	0.00	29.870 
02:35	68.1	68.1	68.1	69	57.5	0	3	225	0.00	29.870 
02:40	68.1	68.1	68.1	69	57.5	0	2	225	0.00	29.870 
02:45	68.1	68.1	68.1	70	57.9	0	2	225	0.00	29.868 
02:50	68.1	68.1	68.1	70	57.9	0	3	225	0.00	29.868 
02:55	68.1	68.1	68.1	70	57.9	0	3	248	0.00	29.868 
03:00	68.1	68.1	68.1	70	57.9	0	2	248	0.00	29.859 
03:05	67.9	67.9	67.9	70	57.7	0	1	248	0.00	29.859 
03:10	67.8	67.8	67.8	70	57.6	0	3	248	0.00	29.859 
03:15	67.8	67.8	67.8	70	57.6	0	3	248	0.00	29.855 
03:20	67.6	67.6	67.6	71	57.9	0	3	248	0.00	29.855 
03:25	67.6	67.6	67.6	71	57.9	1	4	270	0.00	29.855 
03:30	67.4	67.4	67.4	71	57.7	0	3	270	0.00	29.854 
03:35	67.4	67.4	67.4	71	57.7	0	5	248	0.00	29.854 
03:40	67.4	67.4	67.4	72	58.1	1	3	248	0.00	29.854 
03:45	67.3	67.3	67.3	72	58.0	0	2	248	0.00	29.852 
03:50	67.3	67.3	67.3	72	58.0	0	2	248	0.00	29.852 
03:55	67.3	67.3	67.3	73	58.3	0	2	248	0.00	29.852 
04:00	67.1	67.1	67.1	73	58.1	0	2	248	0.00	29.852 
04:05	67.1	67.1	67.1	73	58.1	1	4	248	0.00	29.852 
04:10	67.1	67.1	67.1	73	58.1	1	4	270	0.00	29.852 
04:15	67.1	67.1	67.1	73	58.1	0	2	270	0.00	29.848 
04:20	67.1	67.1	67.1	73	58.1	0	3	270	0.00	29.848 
04:25	66.9	66.9	66.9	74	58.3	0	3	248	0.00	29.848 
04:30	66.9	66.9	66.9	74	58.3	0	5	270	0.00	29.842 
04:35	66.9	66.9	66.9	74	58.3	0	2	270	0.00	29.842 
04:40	66.9	66.9	66.9	74	58.3	0	2	270	0.00	29.842 
04:45	66.9	66.9	66.9	74	58.3	1	4	248	0.00	29.839 
04:50	66.9	66.9	66.9	74	58.3	0	2	292	0.00	29.839 
04:55	66.9	66.9	66.9	74	58.3	0	3	248	0.00	29.839 
05:00	66.9	66.9	66.9	74	58.3	0	3	292	0.00	29.836 
05:05	66.9	66.9	66.9	74	58.3	0	4	292	0.00	29.836 
05:10	66.8	66.8	66.8	74	58.2	0	3	202	0.00	29.836 
05:15	66.8	66.8	66.8	74	58.2	0	3	270	0.00	29.836 
05:20	66.8	66.8	66.8	74	58.2	1	3	270	0.00	29.836 
05:25	66.8	66.8	66.8	74	58.2	0	1	270	0.00	29.836 
05:30	66.8	66.8	66.8	74	58.2	0	3	270	0.00	29.826 
05:35	66.6	66.6	66.6	74	58.0	0	4	270	0.00	29.826 
05:40	66.6	66.6	66.6	74	58.0	0	2	248	0.00	29.826 
05:45	66.6	66.6	66.6	74	58.0	0	2	270	0.00	29.826 
05:50	66.4	66.4	66.4	74	57.9	0	2	315	0.00	29.826 
05:55	66.4	66.4	66.4	74	57.9	0	1	248	0.00	29.826 
06:00	66.4	66.4	66.4	74	57.9	0	1	248	0.00	29.826 
06:05	66.4	66.4	66.4	74	57.9	0	1	315	0.00	29.826 
06:10	66.6	66.6	66.6	74	58.0	0	1	315	0.00	29.826 
06:15	66.6	66.6	66.6	74	58.0	0	2	270	0.00	29.824 
06:20	66.6	66.6	66.6	74	58.0	0	1	270	0.00	29.824 
06:25	66.4	66.4	66.4	74	57.9	0	2	270	0.00	29.824 
06:30	66.6	66.6	66.6	74	58.0	0	2	338	0.00	29.823 
06:35	66.8	66.8	66.8	74	58.2	0	1	338	0.00	29.823 
06:40	66.8	66.8	66.8	74	58.2	0	3	270	0.00	29.823 
06:45	66.9	66.9	66.9	74	58.3	0	4	270	0.00	29.823 
06:50	66.9	66.9	66.9	74	58.3	0	4	248	0.00	29.823 
06:55	66.9	66.9	66.9	74	58.3	0	3	270	0.00	29.823 
07:00	67.1	67.1	67.1	74	58.5	0	1	270	0.00	29.823 
07:05	67.1	67.1	67.1	74	58.5	1	3	270	0.00	29.823 
07:10	67.1	67.1	67.1	74	58.5	0	3	225	0.00	29.823 
07:15	67.1	67.1	67.1	74	58.5	1	3	225	0.00	29.826 
07:20	67.1	67.1	67.1	74	58.5	1	3	270	0.00	29.826 
07:25	67.3	67.3	67.3	74	58.7	1	4	270	0.00	29.826 
07:30	67.1	67.1	67.1	74	58.5	0	2	225	0.00	29.826 
07:35	67.1	67.1	67.1	74	58.5	0	2	225	0.00	29.826 
07:40	67.1	67.1	67.1	74	58.5	1	4	270	0.00	29.826 
07:45	67.1	67.1	67.1	74	58.5	0	3	270	0.00	29.826 
07:50	67.1	67.1	67.1	74	58.5	0	3	270	0.00	29.826 
07:55	67.1	67.1	67.1	75	58.9	0	2	248	0.00	29.826 
08:00	67.1	67.1	67.1	75	58.9	1	5	270	0.00	29.826 
08:05	67.3	67.3	67.3	75	59.1	0	3	270	0.00	29.826 
08:10	67.3	67.3	67.3	74	58.7	1	5	270	0.00	29.826 
08:15	67.4	67.4	67.4	74	58.8	1	3	248	0.00	29.831 
08:20	67.6	67.6	67.6	74	59.0	1	3	270	0.00	29.831 
08:25	67.8	67.8	67.8	74	59.2	1	4	270	0.00	29.831 
08:30	67.9	67.9	67.9	73	58.9	1	4	270	0.00	29.834 
08:35	67.9	67.9	67.9	73	58.9	1	5	270	0.00	29.834 
08:40	68.1	68.1	68.1	73	59.1	2	4	270	0.00	29.834 
08:45	68.3	68.3	68.3	73	59.3	1	5	270	0.00	29.831 
08:50	68.6	68.6	68.6	72	59.2	2	4	270	0.00	29.831 
08:55	68.8	68.8	68.8	72	59.4	1	5	270	0.00	29.831 
09:00	68.9	68.9	68.9	71	59.1	2	5	248	0.00	29.827 
09:05	69.1	69.1	69.1	71	59.3	1	5	270	0.00	29.827 
09:10	69.1	69.1	69.1	71	59.3	2	6	248	0.00	29.827 
09:15	69.4	69.4	69.4	71	59.6	2	5	270	0.00	29.827 
09:20	69.8	69.8	69.8	70	59.6	2	5	270	0.00	29.827 
09:25	69.9	69.9	69.9	69	59.3	1	5	270	0.00	29.827 
09:30	70.3	70.3	70.3	69	59.6	1	6	270	0.00	29.824 
09:35	70.4	70.4	70.4	68	59.3	2	4	248	0.00	29.824 
09:40	70.8	70.8	70.8	68	59.7	2	6	270	0.00	29.824 
09:45	71.3	71.3	71.3	67	59.8	2	5	270	0.00	29.820 
09:50	71.5	71.5	71.5	66	59.5	2	4	248	0.00	29.820 
09:55	71.8	71.8	71.8	66	59.8	2	7	248	0.00	29.820 
10:00	72.1	72.1	72.1	65	59.7	2	7	270	0.00	29.816 
10:05	72.5	72.5	72.5	65	60.0	2	5	270	0.00	29.816 
10:10	72.8	72.8	72.8	63	59.5	3	6	270	0.00	29.816 
10:15	73.2	73.2	73.2	63	59.8	2	6	270	0.00	29.819 
10:20	73.5	73.5	73.5	62	59.7	2	6	270	0.00	29.819 
10:25	73.7	73.7	73.7	62	59.9	3	6	270	0.00	29.819 
10:30	73.9	73.9	73.9	62	60.0	2	6	270	0.00	29.819 
10:35	74.4	74.4	74.4	62	60.5	2	4	270	0.00	29.819 
10:40	74.7	74.7	74.7	62	60.8	2	4	270	0.00	29.819 
10:45	75.1	75.1	77.4	60	60.2	2	5	270	0.00	29.819 
10:50	75.3	75.3	77.5	60	60.4	2	5	270	0.00	29.819 
10:55	75.4	75.4	77.6	60	60.5	3	6	270	0.00	29.819 
11:00	75.8	75.8	77.9	59	60.4	2	5	315	0.00	29.814 
11:05	76.3	76.3	78.2	58	60.4	2	5	270	0.00	29.814 
11:10	76.5	76.5	78.4	58	60.6	2	6	270	0.00	29.814 
11:15	76.7	76.7	78.5	57	60.3	2	6	270	0.00	29.819 
11:20	76.7	76.7	78.5	57	60.3	3	6	248	0.00	29.819 
11:25	76.8	76.8	78.6	57	60.4	3	6	248	0.00	29.819 
11:30	77.0	77.0	78.7	57	60.6	3	7	270	0.00	29.819 
11:35	77.4	77.4	79.0	56	60.5	2	6	270	0.00	29.819 
11:40	77.7	77.7	79.3	57	61.2	2	5	270	0.00	29.819 
11:45	78.1	78.1	79.6	57	61.6	2	7	270	0.00	29.818 
11:50	77.9	77.9	79.4	55	60.4	4	7	270	0.00	29.818 
11:55	78.1	78.1	79.5	55	60.6	3	6	270	0.00	29.818 
12:00	78.1	78.1	79.5	54	60.1	4	7	270	0.00	29.817 
12:05	78.1	78.1	79.5	55	60.6	3	5	270	0.00	29.817 
12:10	78.6	78.6	80.0	55	61.1	2	5	270	0.00	29.817 
12:15	79.0	79.0	80.3	54	60.9	3	5	270	0.00	29.813 
12:20	79.4	79.4	80.6	54	61.3	3	5	270	0.00	29.813 
12:25	79.6	79.6	80.7	53	60.9	2	4	292	0.00	29.813 
12:30	79.6	79.6	80.7	53	60.9	3	6	270	0.00	29.815 
12:35	79.6	79.6	80.7	53	60.9	3	6	270	0.00	29.815 
12:40	79.4	79.4	80.6	54	61.3	4	7	270	0.00	29.815 
12:45	79.6	79.6	80.7	53	60.9	3	6	270	0.00	29.816 
12:50	79.8	79.8	80.9	53	61.1	3	6	270	0.00	29.816 
12:55	80.1	80.1	81.3	54	61.9	3	5	270	0.00	29.816 
13:00	80.3	80.3	81.4	53	61.6	3	6	270	0.00	29.811 
13:05	80.7	80.7	81.8	53	62.0	2	6	248	0.00	29.811 
13:10	80.9	80.9	82.0	53	62.1	3	6	270	0.00	29.811 
13:15	81.1	81.1	82.1	52	61.8	3	6	270	0.00	29.811 
13:20	80.9	80.9	81.9	52	61.6	4	7	270	0.00	29.811 
13:25	80.9	80.9	82.1	54	62.7	3	6	270	0.00	29.811 
13:30	81.1	81.1	82.0	51	61.2	4	9	270	0.00	29.814 
13:35	81.1	81.1	82.1	52	61.8	3	6	248	0.00	29.814 
13:40	81.2	81.2	82.2	52	61.9	3	7	270	0.00	29.814 
13:45	81.4	81.4	82.3	51	61.5	3	6	270	0.00	29.810 
13:50	81.6	81.6	82.5	51	61.7	3	6	270	0.00	29.810 
13:55	81.4	81.4	82.3	51	61.5	4	8	270	0.00	29.810 
14:00	81.2	81.2	82.1	51	61.3	4	7	270	0.00	29.811 
14:05	81.4	81.4	82.4	52	62.1	4	6	270	0.00	29.811 
14:10	81.6	81.6	82.3	50	61.1	3	7	248	0.00	29.811 
14:15	82.0	82.0	82.9	51	62.1	3	7	292	0.00	29.807 
14:20	81.8	81.8	82.6	50	61.3	4	7	270	0.00	29.807 
14:25	82.0	82.0	82.9	51	62.1	3	9	292	0.00	29.807 
14:30	82.0	82.0	82.9	51	62.1	3	9	270	0.00	29.806 
14:35	82.2	82.2	82.8	49	61.1	3	7	248	0.00	29.806 
14:40	82.2	82.2	82.8	49	61.1	4	7	270	0.00	29.806 
14:45	82.2	82.2	83.0	50	61.7	3	6	292	0.00	29.805 
14:50	82.6	82.6	83.4	50	62.0	3	4	292	0.00	29.805 
14:55	82.8	82.8	83.5	49	61.7	3	7	270	0.00	29.805 
15:00	82.8	82.8	83.5	49	61.7	2	5	270	0.00	29.805 
15:05	83.0	83.0	83.5	48	61.3	4	7	270	0.00	29.805 
15:10	83.0	83.0	83.5	48	61.3	3	6	270	0.00	29.805 
15:15	83.0	83.0	83.4	47	60.7	3	6	270	0.00	29.806 
15:20	82.6	82.6	83.1	48	60.9	4	7	270	0.00	29.806 
15:25	82.4	82.4	82.9	48	60.7	2	5	270	0.00	29.806 
15:30	82.8	82.8	83.3	48	61.1	3	6	270	0.00	29.806 
15:35	83.2	83.2	83.6	47	60.8	2	5	270	0.00	29.806 
15:40	83.4	83.4	83.8	47	61.0	3	5	270	0.00	29.806 
15:45	83.0	83.0	83.5	48	61.3	3	7	270	0.00	29.808 
15:50	83.0	83.0	83.4	47	60.7	4	9	270	0.00	29.808 
15:55	82.8	82.8	83.2	47	60.5	3	6	270	0.00	29.808 
16:00	82.6	82.6	83.3	49	61.5	3	7	292	0.00	29.812 
16:05	82.6	82.6	83.4	50	62.0	2	5	315	0.00	29.812 
16:10	82.6	82.6	83.8	52	63.2	2	4	315	0.00	29.812 
16:15	81.8	81.8	83.0	53	63.0	3	8	315	0.00	29.817 
16:20	81.6	81.6	82.9	54	63.3	2	5	270	0.00	29.817 
16:25	81.2	81.2	82.6	55	63.5	2	7	315	0.00	29.817 
16:30	80.9	80.9	82.4	56	63.7	2	5	292	0.00	29.820 
16:35	80.7	80.7	82.2	56	63.5	2	6	270	0.00	29.820 
16:40	80.3	80.3	81.7	56	63.1	2	5	270	0.00	29.820 
16:45	80.1	80.1	81.5	56	63.0	2	6	270	0.00	29.824 
16:50	79.6	79.6	81.0	56	62.5	3	7	315	0.00	29.824 
16:55	79.6	79.6	80.9	55	62.0	2	5	292	0.00	29.824 
17:00	79.6	79.6	80.9	55	62.0	3	6	270	0.00	29.828 
17:05	79.4	79.4	80.7	55	61.8	2	6	338	0.00	29.828 
17:10	79.2	79.2	80.4	53	60.6	2	5	292	0.00	29.828 
17:15	79.0	79.0	80.2	53	60.4	3	7	292	0.00	29.837 
17:20	78.6	78.6	79.8	53	60.0	3	7	292	0.00	29.837 
17:25	78.5	78.5	79.8	54	60.4	3	7	292	0.00	29.837 
17:30	78.5	78.5	79.8	54	60.4	2	4	270	0.00	29.842 
17:35	78.3	78.3	79.8	56	61.3	2	5	270	0.00	29.842 
17:40	77.9	77.9	79.4	56	60.9	2	4	315	0.00	29.842 
17:45	77.6	77.6	79.2	56	60.6	3	6	270	0.00	29.852 
17:50	77.2	77.2	78.9	56	60.3	3	7	270	0.00	29.852 
17:55	76.8	76.8	78.6	55	59.4	2	5	292	0.00	29.852 
18:00	76.5	76.5	78.4	55	59.1	3	6	315	0.00	29.859 
18:05	76.1	76.1	78.1	57	59.7	3	6	270	0.00	29.859 
18:10	76.1	76.1	78.1	57	59.7	1	5	270	0.00	29.859 
18:15	76.1	76.1	78.1	56	59.2	2	6	315	0.00	29.859 
18:20	76.0	76.0	78.1	57	59.6	2	4	292	0.00	29.859 
18:25	75.6	75.6	77.8	57	59.3	2	5	338	0.00	29.859 
18:30	75.4	75.4	77.7	58	59.6	1	3	315	0.00	29.863 
18:35	75.3	75.3	77.6	58	59.5	2	7	270	0.00	29.863 
18:40	74.9	74.9	74.9	58	59.1	1	7	292	0.00	29.863 
18:45	74.7	74.7	74.7	58	58.9	2	6	292	0.00	29.870 
18:50	74.2	74.2	74.2	58	58.5	2	4	315	0.00	29.870 
18:55	73.7	73.7	73.7	60	58.9	3	5	292	0.00	29.870 
19:00	73.3	73.3	73.3	61	59.0	2	4	292	0.00	29.874 
19:05	73.0	73.0	73.0	61	58.7	3	9	315	0.00	29.874 
19:10	72.8	72.8	72.8	62	59.0	3	5	270	0.00	29.874 
19:15	72.7	72.7	72.7	62	58.9	2	5	270	0.00	29.876 
19:20	72.5	72.5	72.5	63	59.2	2	4	292	0.00	29.876 
19:25	72.1	72.1	72.1	63	58.8	1	3	292	0.00	29.876 
19:30	72.0	72.0	72.0	63	58.7	1	4	315	0.00	29.879 
19:35	71.6	71.6	71.6	64	58.8	1	3	270	0.00	29.879 
19:40	71.5	71.5	71.5	64	58.7	1	4	292	0.00	29.879 
19:45	71.1	71.1	71.1	64	58.3	1	5	270	0.00	29.879 
19:50	70.9	70.9	70.9	64	58.1	1	5	270	0.00	29.879 
19:55	70.6	70.6	70.6	65	58.2	1	3	270	0.00	29.879 
20:00	70.4	70.4	70.4	65	58.1	1	2	292	0.00	29.883 
20:05	70.1	70.1	70.1	66	58.2	0	2	292	0.00	29.883 
20:10	69.8	69.8	69.8	66	57.9	1	5	292	0.00	29.883 
20:15	69.4	69.4	69.4	67	58.0	1	5	292	0.00	29.888 
20:20	69.1	69.1	69.1	67	57.7	0	2	292	0.00	29.888 
20:25	68.6	68.6	68.6	68	57.6	1	3	292	0.00	29.888 
20:30	68.3	68.3	68.3	67	56.9	1	4	270	0.00	29.895 
20:35	67.8	67.8	67.8	68	56.8	0	2	270	0.00	29.895 
20:40	67.4	67.4	67.4	68	56.5	1	3	270	0.00	29.895 
20:45	67.1	67.1	67.1	69	56.6	0	2	270	0.00	29.899 
20:50	66.8	66.8	66.8	68	55.9	1	3	292	0.00	29.899 
20:55	66.4	66.4	66.4	69	55.9	0	4	292	0.00	29.899 
21:00	66.1	66.1	66.1	69	55.6	0	2	270	0.00	29.910 
21:05	65.8	65.8	65.8	69	55.3	0	2	270	0.00	29.910 
21:10	65.6	65.6	65.6	69	55.1	1	3	270	0.00	29.910 
21:15	65.3	65.3	65.3	69	54.9	0	1	270	0.00	29.912 
21:20	65.2	65.2	65.2	70	55.2	0	2	270	0.00	29.912 
21:25	65.0	65.0	65.0	70	55.0	0	3	270	0.00	29.912 
21:30	64.7	64.7	64.7	71	55.1	0	1	270	0.00	29.919 
21:35	64.3	64.3	64.3	72	55.1	0	3	270	0.00	29.919 
21:40	64.2	64.2	64.2	72	55.0	0	1	270	0.00	29.919 
21:45	63.9	63.9	63.9	72	54.7	0	2	270	0.00	29.926 
21:50	63.7	63.7	63.7	73	54.9	0	2	270	0.00	29.926 
21:55	63.4	63.4	63.4	73	54.6	0	2	270	0.00	29.926 
22:00	63.2	63.2	63.2	73	54.4	0	1	270	0.00	29.931 
22:05	63.1	63.1	63.1	73	54.3	0	2	270	0.00	29.931 
22:10	62.7	62.7	62.7	74	54.3	0	1	270	0.00	29.931 
22:15	62.6	62.6	62.6	74	54.2	0	2	270	0.00	29.931 
22:20	62.4	62.4	62.4	75	54.4	0	1	270	0.00	29.931 
22:25	62.1	62.1	62.1	75	54.1	0	2	270	0.00	29.931 
22:30	62.0	62.0	62.0	75	54.0	0	1	270	0.00	29.932 
22:35	61.6	61.6	61.6	76	54.0	0	1	270	0.00	29.932 
22:40	61.5	61.5	61.5	77	54.2	0	0	---	0.00	29.932 
22:45	61.2	61.2	61.2	77	53.9	0	0	---	0.00	29.933 
22:50	60.9	60.9	60.9	78	54.0	0	0	---	0.00	29.933 
22:55	60.7	60.7	60.7	78	53.8	0	1	270	0.00	29.933 
23:00	60.5	60.5	60.5	79	54.0	0	0	---	0.00	29.938 
23:05	60.4	60.4	60.4	79	53.9	0	1	270	0.00	29.938 
23:10	60.2	60.2	60.2	79	53.7	0	1	270	0.00	29.938 
23:15	60.1	60.1	60.1	79	53.6	0	1	270	0.00	29.938 
23:20	59.9	59.9	59.9	79	53.4	0	0	---	0.00	29.938 
23:25	59.6	59.6	59.6	79	53.1	0	1	270	0.00	29.938 
23:30	59.5	59.5	59.5	78	52.6	0	1	270	0.00	29.940 
23:35	59.3	59.3	59.3	78	52.4	0	1	270	0.00	29.940 
23:40	59.2	59.2	59.2	78	52.3	0	1	270	0.00	29.940 
23:45	59.0	59.0	59.0	78	52.1	0	1	270	0.00	29.942 
23:50	58.9	58.9	58.9	78	52.0	0	1	270	0.00	29.942 
23:55	58.7	58.7	58.7	77	51.5	0	1	270	0.00	29.942 

CoCoRaHS
IN-AL-39
A2 Web Hosting
Creative Commons License
GoDaddy
search engine by freefind advanced

loaded 2018-11-15 05:39:52 • last modified 2010-11-18 10:43:29
Privacy PolicyDisclaimer
• wx.awcolley.com is powered by PmWiki v.2002016 •
• all content (unless otherwise noted) © 2018 A W Colley